Ozan, Arkansas
Current Conditions -  °F | °C
As of 9:53 AM on Saturday 25 Oct 2014 (Local Time) from KTXK Reporting Station
Clear Clear  
Wind Chill: 21°   Ceiling: Unl
Heat Index: 21°   Visibility: 10mi
Dew Point: 15°   Wind: 8mph
Humidity: 68%   Direction: 250°WSW
Pressure: 30.17"   Gusts: NA
Location:  33.85°N, 93.72°W
Report Text: KTXK 251453Z 25007KT 10SM CLR 21/15 A3017 RMK AO2 SLP211 T02110150 53010
Loading
Personal Weather Stations






























Interactive Weather Map
Tropical Storm Tracking
New forecast layout! Learn more

10-Day Weather Forecast

Advertisements
Track Severe Weather on mobile